createdAt,value
2023-03-27T00:00:19.657Z,6.4
2023-03-27T00:01:19.645Z,6.4
2023-03-27T00:02:19.714Z,6.4
2023-03-27T00:03:19.817Z,6.3
2023-03-27T00:04:19.689Z,6.3
2023-03-27T00:05:19.557Z,6.3
2023-03-27T00:06:19.608Z,6.3
2023-03-27T00:07:19.599Z,6.3
2023-03-27T00:08:19.654Z,6.3
2023-03-27T00:09:19.794Z,6.3
2023-03-27T00:10:19.661Z,6.3
2023-03-27T00:11:19.593Z,6.3
2023-03-27T00:12:19.565Z,6.3
2023-03-27T00:13:19.604Z,6.3
2023-03-27T00:14:19.650Z,6.3
2023-03-27T00:15:19.665Z,6.3
2023-03-27T00:16:19.649Z,6.4
2023-03-27T00:17:19.589Z,6.4
2023-03-27T00:18:19.600Z,6.4
2023-03-27T00:19:19.637Z,6.4
2023-03-27T00:20:19.901Z,6.4
2023-03-27T00:21:19.653Z,6.4
2023-03-27T00:22:19.558Z,6.4
2023-03-27T00:23:19.577Z,6.4
2023-03-27T00:24:19.592Z,6.5
2023-03-27T00:25:19.696Z,6.5
2023-03-27T00:26:19.590Z,6.5
2023-03-27T00:27:19.554Z,6.5
2023-03-27T00:28:19.587Z,6.5
2023-03-27T00:29:19.636Z,6.5
2023-03-27T00:30:19.543Z,6.5
2023-03-27T00:31:19.892Z,6.4
2023-03-27T00:32:19.622Z,6.4
2023-03-27T00:33:19.569Z,6.5
2023-03-27T00:34:19.595Z,6.5
2023-03-27T00:35:19.583Z,6.5
2023-03-27T00:36:19.670Z,6.5
2023-03-27T00:37:19.529Z,6.5
2023-03-27T00:38:19.525Z,6.5
2023-03-27T00:39:19.568Z,6.5
2023-03-27T00:40:19.605Z,6.4
2023-03-27T00:41:19.644Z,6.4
2023-03-27T00:42:19.527Z,6.4
2023-03-27T00:43:19.590Z,6.4
2023-03-27T00:44:19.603Z,6.4
2023-03-27T00:45:19.550Z,6.5
2023-03-27T00:46:19.539Z,6.4
2023-03-27T00:47:19.518Z,6.4
2023-03-27T00:48:19.518Z,6.4
2023-03-27T00:49:19.667Z,6.4
2023-03-27T00:50:19.704Z,6.4
2023-03-27T00:51:19.593Z,6.4
2023-03-27T00:52:19.496Z,6.4
2023-03-27T00:53:19.521Z,6.4
2023-03-27T00:54:19.636Z,6.4
2023-03-27T00:55:19.595Z,6.4
2023-03-27T00:56:19.557Z,6.4
2023-03-27T00:57:19.931Z,6.4
2023-03-27T00:58:19.540Z,6.4
2023-03-27T00:59:19.695Z,6.4
2023-03-27T01:00:19.788Z,6.4
2023-03-27T01:01:19.823Z,6.4
2023-03-27T01:02:19.749Z,6.4
2023-03-27T01:03:19.734Z,6.4
2023-03-27T01:04:19.790Z,6.5
2023-03-27T01:05:19.735Z,6.5
2023-03-27T01:06:19.793Z,6.4
2023-03-27T01:07:19.618Z,6.4
2023-03-27T01:08:19.733Z,6.4
2023-03-27T01:09:20.553Z,6.5
2023-03-27T01:10:19.779Z,6.4
2023-03-27T01:11:19.675Z,6.5
2023-03-27T01:12:20.864Z,6.5
2023-03-27T01:13:19.601Z,6.5
2023-03-27T01:14:19.648Z,6.5
2023-03-27T01:15:19.618Z,6.5
2023-03-27T01:16:19.621Z,6.5
2023-03-27T01:17:19.484Z,6.5
2023-03-27T01:18:19.494Z,6.5
2023-03-27T01:19:19.758Z,6.5
2023-03-27T01:20:19.487Z,6.4
2023-03-27T01:21:19.734Z,6.4
2023-03-27T01:22:19.481Z,6.4
2023-03-27T01:23:35.327Z,6.4
2023-03-27T01:24:19.487Z,6.4
2023-03-27T01:25:19.443Z,6.4
2023-03-27T01:26:35.304Z,6.5
2023-03-27T01:27:19.463Z,6.5
2023-03-27T01:28:19.479Z,6.5
2023-03-27T01:29:19.439Z,6.5
2023-03-27T01:30:19.447Z,6.5
2023-03-27T01:31:19.440Z,6.5
2023-03-27T01:32:19.454Z,6.5
2023-03-27T01:33:19.463Z,6.5
2023-03-27T01:34:19.421Z,6.5
2023-03-27T01:35:19.459Z,6.5
2023-03-27T01:36:19.440Z,6.5
2023-03-27T01:37:20.217Z,6.5
2023-03-27T01:38:19.657Z,6.5
2023-03-27T01:39:19.520Z,6.5
2023-03-27T01:40:19.501Z,6.5
2023-03-27T01:41:19.426Z,6.5
2023-03-27T01:42:19.404Z,6.5
2023-03-27T01:43:19.517Z,6.5
2023-03-27T01:44:19.574Z,6.5
2023-03-27T01:45:19.438Z,6.5
2023-03-27T01:46:19.490Z,6.5
2023-03-27T01:47:19.449Z,6.5
2023-03-27T01:48:19.404Z,6.5
2023-03-27T01:49:19.497Z,6.5
2023-03-27T01:50:19.450Z,6.5
2023-03-27T01:51:19.475Z,6.5
2023-03-27T01:52:19.435Z,6.5
2023-03-27T01:53:19.384Z,6.5
2023-03-27T01:54:19.440Z,6.5
2023-03-27T01:55:19.551Z,6.5
2023-03-27T01:56:19.441Z,6.5
2023-03-27T01:57:19.705Z,6.5
2023-03-27T01:58:19.549Z,6.5
2023-03-27T01:59:19.419Z,6.5
2023-03-27T02:00:19.779Z,6.5
2023-03-27T02:01:19.457Z,6.5
2023-03-27T02:02:19.434Z,6.5
2023-03-27T02:04:19.560Z,6.5
2023-03-27T02:05:19.509Z,6.5
2023-03-27T02:06:19.406Z,6.5
2023-03-27T02:07:19.560Z,6.5
2023-03-27T02:08:19.500Z,6.5
2023-03-27T02:09:21.353Z,6.5
2023-03-27T02:10:19.405Z,6.5
2023-03-27T02:11:19.406Z,6.5
2023-03-27T02:12:19.372Z,6.4
2023-03-27T02:13:19.454Z,6.4
2023-03-27T02:14:19.368Z,6.4
2023-03-27T02:15:24.586Z,6.4
2023-03-27T02:16:19.446Z,6.4
2023-03-27T02:17:19.338Z,6.3
2023-03-27T02:18:19.354Z,6.3
2023-03-27T02:19:19.381Z,6.3
2023-03-27T02:20:19.405Z,6.3
2023-03-27T02:21:20.338Z,6.3
2023-03-27T02:22:19.365Z,6.3
2023-03-27T02:23:19.369Z,6.3
2023-03-27T02:24:19.435Z,6.3
2023-03-27T02:25:19.410Z,6.3
2023-03-27T02:26:19.403Z,6.3
2023-03-27T02:27:19.363Z,6.3
2023-03-27T02:28:19.363Z,6.3
2023-03-27T02:29:19.383Z,6.2
2023-03-27T02:30:19.583Z,6.2
2023-03-27T02:31:33.276Z,6.2
2023-03-27T02:32:19.520Z,6.2
2023-03-27T02:33:19.397Z,6.2
2023-03-27T02:34:19.327Z,6.2
2023-03-27T02:35:19.340Z,6.2
2023-03-27T02:36:19.369Z,6.2
2023-03-27T02:37:19.368Z,6.2
2023-03-27T02:38:19.341Z,6.2
2023-03-27T02:39:19.361Z,6.2
2023-03-27T02:40:19.298Z,6.2
2023-03-27T02:41:19.486Z,6.2
2023-03-27T02:42:19.413Z,6.2
2023-03-27T02:43:19.309Z,6.2
2023-03-27T02:44:20.274Z,6.2
2023-03-27T02:45:19.305Z,6.2
2023-03-27T02:46:19.431Z,6.2
2023-03-27T02:47:19.375Z,6.1
2023-03-27T02:48:19.405Z,6.1
2023-03-27T02:49:19.309Z,6.1
2023-03-27T02:50:19.308Z,6.1
2023-03-27T02:51:19.373Z,6.1
2023-03-27T02:52:19.349Z,6.1
2023-03-27T02:53:19.339Z,6.1
2023-03-27T02:54:19.391Z,6.1
2023-03-27T02:55:19.309Z,6.1
2023-03-27T02:56:19.323Z,6.1
2023-03-27T02:57:20.056Z,6.1
2023-03-27T02:58:19.327Z,6.1
2023-03-27T02:59:19.321Z,6.0
2023-03-27T03:00:19.447Z,6.0
2023-03-27T03:01:19.396Z,6.0
2023-03-27T03:02:19.527Z,6.0
2023-03-27T03:03:19.496Z,6.0
2023-03-27T03:04:19.319Z,6.0
2023-03-27T03:05:20.343Z,6.0
2023-03-27T03:06:19.310Z,6.0
2023-03-27T03:07:20.353Z,6.0
2023-03-27T03:08:19.298Z,6.0
2023-03-27T03:09:19.313Z,6.0
2023-03-27T03:10:19.308Z,6.0
2023-03-27T03:11:19.299Z,6.0
2023-03-27T03:12:19.290Z,6.0
2023-03-27T03:13:19.309Z,6.0
2023-03-27T03:14:19.445Z,6.0
2023-03-27T03:15:19.293Z,6.0
2023-03-27T03:16:19.322Z,6.0
2023-03-27T03:17:19.261Z,6.0
2023-03-27T03:18:19.330Z,6.0
2023-03-27T03:19:19.255Z,5.9
2023-03-27T03:20:19.451Z,5.9
2023-03-27T03:21:19.277Z,5.9
2023-03-27T03:22:19.235Z,5.9
2023-03-27T03:23:19.303Z,5.9
2023-03-27T03:24:19.253Z,5.9
2023-03-27T03:25:19.421Z,5.9
2023-03-27T03:26:19.268Z,5.9
2023-03-27T03:27:19.256Z,5.9
2023-03-27T03:28:19.310Z,5.9
2023-03-27T03:29:19.335Z,5.9
2023-03-27T03:30:19.297Z,5.9
2023-03-27T03:31:19.273Z,5.9
2023-03-27T03:32:19.277Z,5.9
2023-03-27T03:33:19.285Z,5.8
2023-03-27T03:34:19.706Z,5.9
2023-03-27T03:35:19.286Z,5.8
2023-03-27T03:36:19.435Z,5.8
2023-03-27T03:37:19.245Z,5.8
2023-03-27T03:38:19.266Z,5.8
2023-03-27T03:39:19.213Z,5.8
2023-03-27T03:40:19.238Z,5.8
2023-03-27T03:41:20.841Z,5.8
2023-03-27T03:42:22.831Z,5.8
2023-03-27T03:43:19.256Z,5.8
2023-03-27T03:44:19.286Z,5.8
2023-03-27T03:45:20.364Z,5.8
2023-03-27T03:46:19.319Z,5.8
2023-03-27T03:47:19.336Z,5.8
2023-03-27T03:48:19.241Z,5.8
2023-03-27T03:49:19.342Z,5.8
2023-03-27T03:50:19.282Z,5.8
2023-03-27T03:51:19.255Z,5.8
2023-03-27T03:52:19.274Z,5.8
2023-03-27T03:53:19.260Z,5.8
2023-03-27T03:54:19.200Z,5.8
2023-03-27T03:55:19.201Z,5.8
2023-03-27T03:56:19.242Z,5.8
2023-03-27T03:57:19.315Z,5.8
2023-03-27T03:58:19.643Z,5.8
2023-03-27T03:59:19.317Z,5.8
2023-03-27T04:00:19.258Z,5.8
2023-03-27T04:01:19.355Z,5.8
2023-03-27T04:02:19.533Z,5.8
2023-03-27T04:03:19.288Z,5.8
2023-03-27T04:04:19.209Z,5.8
2023-03-27T04:05:19.202Z,5.8
2023-03-27T04:06:20.555Z,5.8
2023-03-27T04:07:19.270Z,5.8
2023-03-27T04:08:19.199Z,5.8
2023-03-27T04:09:19.180Z,5.8
2023-03-27T04:10:19.187Z,5.8
2023-03-27T04:11:19.206Z,5.8
2023-03-27T04:12:19.210Z,5.8
2023-03-27T04:13:19.280Z,5.8
2023-03-27T04:14:19.214Z,5.8
2023-03-27T04:15:19.224Z,5.8
2023-03-27T04:16:19.286Z,5.8
2023-03-27T04:17:19.222Z,5.8
2023-03-27T04:18:19.394Z,5.8
2023-03-27T04:19:19.138Z,5.8
2023-03-27T04:20:19.350Z,5.8
2023-03-27T04:21:19.220Z,5.8
2023-03-27T04:22:19.216Z,5.8
2023-03-27T04:23:19.168Z,5.8
2023-03-27T04:24:19.194Z,5.8
2023-03-27T04:25:19.224Z,5.8
2023-03-27T04:26:19.356Z,5.8
2023-03-27T04:27:19.216Z,5.8
2023-03-27T04:28:19.170Z,5.8
2023-03-27T04:29:19.166Z,5.8
2023-03-27T04:30:19.260Z,5.8
2023-03-27T04:31:19.157Z,5.8
2023-03-27T04:32:19.511Z,5.8
2023-03-27T04:33:19.131Z,5.8
2023-03-27T04:34:19.163Z,5.8
2023-03-27T04:35:19.173Z,5.8
2023-03-27T04:36:19.185Z,5.8
2023-03-27T04:37:23.133Z,5.8
2023-03-27T04:38:19.128Z,5.8
2023-03-27T04:39:19.185Z,5.8
2023-03-27T04:40:19.175Z,5.8
2023-03-27T04:41:19.310Z,5.8
2023-03-27T04:42:19.500Z,5.8
2023-03-27T04:43:19.227Z,5.8
2023-03-27T04:44:19.141Z,5.8
2023-03-27T04:45:20.156Z,5.8
2023-03-27T04:46:19.172Z,5.8
2023-03-27T04:47:20.160Z,5.8
2023-03-27T04:48:19.106Z,5.8
2023-03-27T04:49:19.236Z,5.8
2023-03-27T04:50:19.187Z,5.8
2023-03-27T04:51:19.107Z,5.8
2023-03-27T04:52:19.110Z,5.8
2023-03-27T04:53:19.509Z,5.8
2023-03-27T04:54:19.222Z,5.9
2023-03-27T04:55:29.256Z,5.9
2023-03-27T04:56:19.132Z,5.9
2023-03-27T04:57:19.288Z,5.9
2023-03-27T04:58:19.124Z,5.9
2023-03-27T04:59:19.119Z,5.9
2023-03-27T05:00:19.251Z,5.9
2023-03-27T05:01:19.221Z,5.9
2023-03-27T05:02:19.122Z,5.9
2023-03-27T05:03:19.178Z,5.9
2023-03-27T05:04:19.064Z,5.9
2023-03-27T05:05:19.168Z,5.9
2023-03-27T05:06:19.084Z,5.9
2023-03-27T05:07:19.164Z,5.9
2023-03-27T05:08:19.183Z,5.9
2023-03-27T05:09:19.137Z,5.9
2023-03-27T05:10:21.856Z,5.9
2023-03-27T05:11:19.074Z,5.9
2023-03-27T05:12:19.205Z,5.9
2023-03-27T05:13:19.060Z,5.9
2023-03-27T05:14:19.162Z,5.9
2023-03-27T05:15:19.266Z,5.9
2023-03-27T05:16:19.169Z,5.9
2023-03-27T05:17:19.069Z,5.9
2023-03-27T05:18:19.090Z,5.9
2023-03-27T05:19:19.067Z,5.9
2023-03-27T05:20:19.076Z,5.9
2023-03-27T05:21:19.051Z,5.9
2023-03-27T05:22:19.065Z,5.9
2023-03-27T05:23:19.061Z,5.9
2023-03-27T05:24:19.102Z,5.9
2023-03-27T05:25:19.080Z,5.9
2023-03-27T05:26:19.156Z,5.9
2023-03-27T05:27:19.057Z,5.9
2023-03-27T05:28:19.050Z,5.9
2023-03-27T05:29:19.056Z,5.9
2023-03-27T05:30:19.037Z,6.0
2023-03-27T05:31:19.140Z,6.0
2023-03-27T05:32:19.042Z,6.0
2023-03-27T05:33:19.035Z,6.0
2023-03-27T05:34:19.017Z,6.0
2023-03-27T05:35:19.182Z,6.0
2023-03-27T05:36:19.023Z,6.0
2023-03-27T05:37:19.173Z,6.0
2023-03-27T05:38:19.039Z,6.0
2023-03-27T05:39:19.180Z,6.0
2023-03-27T05:40:19.202Z,6.0
2023-03-27T05:41:19.091Z,6.0
2023-03-27T05:42:19.100Z,6.0
2023-03-27T05:43:20.087Z,6.0
2023-03-27T05:44:19.096Z,6.0
2023-03-27T05:45:19.033Z,6.0
2023-03-27T05:46:21.000Z,6.0
2023-03-27T05:47:19.053Z,6.0
2023-03-27T05:48:19.219Z,6.0
2023-03-27T05:49:19.003Z,6.0
2023-03-27T05:50:19.029Z,6.0
2023-03-27T05:51:19.069Z,6.0
2023-03-27T05:52:19.075Z,6.0
2023-03-27T05:53:18.980Z,6.0
2023-03-27T05:54:19.046Z,6.0
2023-03-27T05:55:19.061Z,6.0
2023-03-27T05:56:19.088Z,6.0
2023-03-27T05:57:19.167Z,6.0
2023-03-27T05:58:18.990Z,6.0
2023-03-27T05:59:19.246Z,6.0
2023-03-27T06:00:19.228Z,6.0
2023-03-27T06:01:19.013Z,6.0
2023-03-27T06:02:21.117Z,6.1
2023-03-27T06:03:19.118Z,6.1
2023-03-27T06:04:19.188Z,6.1
2023-03-27T06:05:18.992Z,6.1
2023-03-27T06:06:18.987Z,6.1
2023-03-27T06:07:19.018Z,6.1
2023-03-27T06:08:19.047Z,6.0
2023-03-27T06:09:18.956Z,6.1
2023-03-27T06:10:19.507Z,6.0
2023-03-27T06:11:19.058Z,6.1
2023-03-27T06:12:19.074Z,6.0
2023-03-27T06:13:19.174Z,6.0
2023-03-27T06:14:19.081Z,6.0
2023-03-27T06:15:19.045Z,6.1
2023-03-27T06:16:18.975Z,6.0
2023-03-27T06:17:18.986Z,6.0
2023-03-27T06:18:19.064Z,6.0
2023-03-27T06:19:18.971Z,6.0
2023-03-27T06:20:18.977Z,6.0
2023-03-27T06:21:18.941Z,6.0
2023-03-27T06:22:18.946Z,6.0
2023-03-27T06:23:18.991Z,6.1
2023-03-27T06:24:18.974Z,6.1
2023-03-27T06:25:18.935Z,6.1
2023-03-27T06:26:18.951Z,6.1
2023-03-27T06:27:18.988Z,6.1
2023-03-27T06:28:18.950Z,6.1
2023-03-27T06:29:18.951Z,6.1
2023-03-27T06:30:18.975Z,6.1
2023-03-27T06:31:19.230Z,6.1
2023-03-27T06:32:18.940Z,6.1
2023-03-27T06:33:18.936Z,6.1
2023-03-27T06:34:18.878Z,6.1
2023-03-27T06:35:18.918Z,6.1
2023-03-27T06:36:18.960Z,6.1
2023-03-27T06:37:18.941Z,6.1
2023-03-27T06:38:19.111Z,6.1
2023-03-27T06:39:19.187Z,6.1
2023-03-27T06:40:18.935Z,6.1
2023-03-27T06:41:18.962Z,6.1
2023-03-27T06:42:19.056Z,6.1
2023-03-27T06:43:18.932Z,6.1
2023-03-27T06:44:18.966Z,6.2
2023-03-27T06:45:18.904Z,6.2
2023-03-27T06:46:18.957Z,6.2
2023-03-27T06:47:18.988Z,6.2
2023-03-27T06:48:21.599Z,6.2
2023-03-27T06:49:18.969Z,6.2
2023-03-27T06:50:19.069Z,6.2
2023-03-27T06:51:18.957Z,6.2
2023-03-27T06:52:18.887Z,6.3
2023-03-27T06:53:26.552Z,6.3
2023-03-27T06:54:18.902Z,6.3
2023-03-27T06:55:18.992Z,6.2
2023-03-27T06:56:18.945Z,6.2
2023-03-27T06:57:18.975Z,6.2
2023-03-27T06:58:19.555Z,6.3
2023-03-27T06:59:19.087Z,6.3
2023-03-27T07:00:19.026Z,6.3
2023-03-27T07:01:19.048Z,6.3
2023-03-27T07:02:18.930Z,6.3
2023-03-27T07:03:18.910Z,6.3
2023-03-27T07:04:19.159Z,6.3
2023-03-27T07:05:18.926Z,6.3
2023-03-27T07:06:18.873Z,6.3
2023-03-27T07:07:18.896Z,6.3
2023-03-27T07:08:23.433Z,6.3
2023-03-27T07:09:20.263Z,6.3
2023-03-27T07:10:18.937Z,6.3
2023-03-27T07:11:19.194Z,6.3
2023-03-27T07:12:18.918Z,6.3
2023-03-27T07:13:18.889Z,6.3
2023-03-27T07:14:18.891Z,6.3
2023-03-27T07:15:19.012Z,6.4
2023-03-27T07:16:18.958Z,6.4
2023-03-27T07:17:19.265Z,6.4
2023-03-27T07:18:18.937Z,6.4
2023-03-27T07:19:19.321Z,6.3
2023-03-27T07:20:19.062Z,6.3
2023-03-27T07:21:18.881Z,6.3
2023-03-27T07:22:18.810Z,6.3
2023-03-27T07:23:18.913Z,6.3
2023-03-27T07:24:18.856Z,6.3
2023-03-27T07:25:18.818Z,6.4
2023-03-27T07:26:41.528Z,6.4
2023-03-27T07:27:18.836Z,6.4
2023-03-27T07:28:18.859Z,6.4
2023-03-27T07:29:18.939Z,6.3
2023-03-27T07:30:18.844Z,6.4
2023-03-27T07:32:29.755Z,6.4
2023-03-27T07:33:18.982Z,6.4
2023-03-27T07:34:19.134Z,6.4
2023-03-27T07:35:18.876Z,6.4
2023-03-27T07:36:18.808Z,6.4
2023-03-27T07:37:18.850Z,6.4
2023-03-27T07:38:18.901Z,6.4
2023-03-27T07:39:18.957Z,6.4
2023-03-27T07:40:23.838Z,6.4
2023-03-27T07:41:18.827Z,6.4
2023-03-27T07:42:18.843Z,6.4
2023-03-27T07:43:18.813Z,6.4
2023-03-27T07:44:18.850Z,6.4
2023-03-27T07:45:18.926Z,6.4
2023-03-27T07:46:18.904Z,6.4
2023-03-27T07:47:19.003Z,6.4
2023-03-27T07:48:18.846Z,6.4
2023-03-27T07:49:18.780Z,6.4
2023-03-27T07:50:18.806Z,6.4
2023-03-27T07:51:18.898Z,6.4
2023-03-27T07:52:18.821Z,6.4
2023-03-27T07:53:34.847Z,6.4
2023-03-27T07:54:18.776Z,6.4
2023-03-27T07:55:18.806Z,6.4
2023-03-27T07:56:18.951Z,6.4
2023-03-27T07:57:18.916Z,6.3
2023-03-27T07:58:19.036Z,6.3
2023-03-27T07:59:18.771Z,6.3
2023-03-27T08:00:18.906Z,6.3
2023-03-27T08:01:18.834Z,6.3
2023-03-27T08:02:18.811Z,6.2
2023-03-27T08:03:18.889Z,6.2
2023-03-27T08:04:18.997Z,6.2
2023-03-27T08:05:18.817Z,6.1
2023-03-27T08:06:18.746Z,6.1
2023-03-27T08:07:18.932Z,6.0
2023-03-27T08:08:18.768Z,6.0
2023-03-27T08:09:18.931Z,5.9
2023-03-27T08:10:18.798Z,5.9
2023-03-27T08:11:29.613Z,5.9
2023-03-27T08:12:18.838Z,5.9
2023-03-27T08:13:18.859Z,5.8
2023-03-27T08:14:18.748Z,5.8
2023-03-27T08:16:18.854Z,5.8
2023-03-27T08:17:21.388Z,5.8
2023-03-27T08:18:18.982Z,5.8
2023-03-27T08:19:18.736Z,5.7
2023-03-27T08:20:19.186Z,5.7
2023-03-27T08:21:18.822Z,5.7
2023-03-27T08:22:18.912Z,5.7
2023-03-27T08:23:18.755Z,5.7
2023-03-27T08:24:18.770Z,5.7
2023-03-27T08:25:18.752Z,5.7
2023-03-27T08:26:18.779Z,5.7
2023-03-27T08:27:18.901Z,5.7
2023-03-27T08:28:18.735Z,5.6
2023-03-27T08:29:18.756Z,5.6
2023-03-27T08:30:18.847Z,5.6
2023-03-27T08:31:18.988Z,5.5
2023-03-27T08:32:18.764Z,5.5
2023-03-27T08:33:18.861Z,5.4
2023-03-27T08:34:18.743Z,5.4
2023-03-27T08:35:18.939Z,5.4
2023-03-27T08:36:18.735Z,5.3
2023-03-27T08:37:18.671Z,5.3
2023-03-27T08:38:26.052Z,5.3
2023-03-27T08:39:18.734Z,5.3
2023-03-27T08:40:18.860Z,5.3
2023-03-27T08:41:18.676Z,5.3
2023-03-27T08:42:19.423Z,5.3
2023-03-27T08:43:18.815Z,5.2
2023-03-27T08:44:18.717Z,5.2
2023-03-27T08:45:18.684Z,5.2
2023-03-27T08:46:18.731Z,5.2
2023-03-27T08:47:18.768Z,5.2
2023-03-27T08:48:21.214Z,5.2
2023-03-27T08:49:18.714Z,5.1
2023-03-27T08:50:18.691Z,5.1
2023-03-27T08:51:18.740Z,5.1
2023-03-27T08:52:18.739Z,5.1
2023-03-27T08:53:18.882Z,5.1
2023-03-27T08:54:18.721Z,5.1
2023-03-27T08:55:18.787Z,5.0
2023-03-27T08:56:18.704Z,5.0
2023-03-27T08:57:28.992Z,4.9
2023-03-27T08:58:18.768Z,4.9
2023-03-27T08:59:18.785Z,4.9
2023-03-27T09:00:18.776Z,4.8
2023-03-27T09:01:18.757Z,4.8
2023-03-27T09:02:18.732Z,4.7
2023-03-27T09:03:18.895Z,4.7
2023-03-27T09:04:18.990Z,4.7
2023-03-27T09:05:18.772Z,4.6
2023-03-27T09:06:18.751Z,4.6
2023-03-27T09:07:18.779Z,4.6
2023-03-27T09:08:18.703Z,4.5
2023-03-27T09:09:18.967Z,4.5
2023-03-27T09:10:21.513Z,4.4
2023-03-27T09:11:20.599Z,4.4
2023-03-27T09:12:18.731Z,4.4
2023-03-27T09:13:18.691Z,4.4
2023-03-27T09:14:18.670Z,4.3
2023-03-27T09:15:18.934Z,4.3
2023-03-27T09:16:18.721Z,4.3
2023-03-27T09:17:18.627Z,4.2
2023-03-27T09:18:18.622Z,4.2
2023-03-27T09:19:18.639Z,4.1
2023-03-27T09:20:18.968Z,4.1
2023-03-27T09:21:18.670Z,4.0
2023-03-27T09:22:19.030Z,4.0
2023-03-27T09:23:20.956Z,3.9
2023-03-27T09:24:18.649Z,3.9
2023-03-27T09:25:18.701Z,3.9
2023-03-27T09:26:18.612Z,3.9
2023-03-27T09:27:18.701Z,3.9
2023-03-27T09:28:18.586Z,3.8
2023-03-27T09:29:20.139Z,3.8
2023-03-27T09:30:18.742Z,3.8
2023-03-27T09:31:18.676Z,3.8
2023-03-27T09:32:18.688Z,3.7
2023-03-27T09:33:18.681Z,3.7
2023-03-27T09:34:18.655Z,3.6
2023-03-27T09:35:18.645Z,3.6
2023-03-27T09:36:18.738Z,3.6
2023-03-27T09:37:18.843Z,3.5
2023-03-27T09:38:18.614Z,3.5
2023-03-27T09:39:18.687Z,3.5
2023-03-27T09:40:18.691Z,3.5
2023-03-27T09:41:18.667Z,3.5
2023-03-27T09:42:18.636Z,3.5
2023-03-27T09:43:18.709Z,3.5
2023-03-27T09:44:18.621Z,3.5
2023-03-27T09:45:18.637Z,3.4
2023-03-27T09:46:18.594Z,3.4
2023-03-27T09:47:18.634Z,3.4
2023-03-27T09:48:18.957Z,3.4
2023-03-27T09:49:18.631Z,3.3
2023-03-27T09:50:18.651Z,3.3
2023-03-27T09:52:18.635Z,3.3
2023-03-27T09:53:18.566Z,3.3
2023-03-27T09:54:18.735Z,3.3
2023-03-27T09:55:18.756Z,3.2
2023-03-27T09:56:18.597Z,3.2
2023-03-27T09:57:18.687Z,3.2
2023-03-27T09:58:18.608Z,3.1
2023-03-27T09:59:18.733Z,3.1
2023-03-27T10:00:18.712Z,3.0
2023-03-27T10:01:20.225Z,3.0
2023-03-27T10:02:18.584Z,3.0
2023-03-27T10:03:18.646Z,3.0
2023-03-27T10:04:18.653Z,2.9
2023-03-27T10:05:18.575Z,2.9
2023-03-27T10:06:18.536Z,2.9
2023-03-27T10:07:18.627Z,2.9
2023-03-27T10:08:43.326Z,2.9
2023-03-27T10:09:18.618Z,2.9
2023-03-27T10:10:18.591Z,2.8
2023-03-27T10:11:18.545Z,2.8
2023-03-27T10:12:18.599Z,2.8
2023-03-27T10:13:18.594Z,2.8
2023-03-27T10:14:18.736Z,2.8
2023-03-27T10:15:18.595Z,2.8
2023-03-27T10:16:18.745Z,2.8
2023-03-27T10:17:18.574Z,2.8
2023-03-27T10:18:18.569Z,2.7
2023-03-27T10:19:18.523Z,2.7
2023-03-27T10:20:18.591Z,2.7
2023-03-27T10:21:18.803Z,2.7
2023-03-27T10:22:18.559Z,2.6
2023-03-27T10:23:18.562Z,2.6
2023-03-27T10:24:18.511Z,2.5
2023-03-27T10:25:18.563Z,2.5
2023-03-27T10:26:20.642Z,2.5
2023-03-27T10:27:18.515Z,2.5
2023-03-27T10:28:18.610Z,2.4
2023-03-27T10:29:18.505Z,2.4
2023-03-27T10:30:18.565Z,2.4
2023-03-27T10:31:18.532Z,2.4
2023-03-27T10:32:18.819Z,2.4
2023-03-27T10:33:18.633Z,2.4
2023-03-27T10:34:18.522Z,2.4
2023-03-27T10:35:18.512Z,2.4
2023-03-27T10:36:18.511Z,2.4
2023-03-27T10:37:41.261Z,2.3
2023-03-27T10:38:18.499Z,2.3
2023-03-27T10:39:18.568Z,2.3
2023-03-27T10:40:18.508Z,2.3
2023-03-27T10:41:28.559Z,2.3
2023-03-27T10:42:18.711Z,2.3
2023-03-27T10:43:18.659Z,2.3
2023-03-27T10:44:18.491Z,2.3
2023-03-27T10:45:18.547Z,2.3
2023-03-27T10:46:18.540Z,2.3
2023-03-27T10:47:18.521Z,2.3
2023-03-27T10:48:18.510Z,2.3
2023-03-27T10:49:18.498Z,2.4
2023-03-27T10:50:18.591Z,2.4
2023-03-27T10:51:18.530Z,2.4
2023-03-27T10:52:18.450Z,2.4
2023-03-27T10:53:18.599Z,2.4
2023-03-27T10:54:18.741Z,2.4
2023-03-27T10:55:18.502Z,2.4
2023-03-27T10:56:18.453Z,2.4
2023-03-27T10:57:18.958Z,2.5
2023-03-27T10:58:18.483Z,2.5
2023-03-27T10:59:23.402Z,2.5
2023-03-27T11:00:18.804Z,2.5
2023-03-27T11:01:18.586Z,2.5
2023-03-27T11:02:18.538Z,2.5
2023-03-27T11:03:18.575Z,2.5
2023-03-27T11:04:18.619Z,2.5
2023-03-27T11:05:18.902Z,2.5
2023-03-27T11:06:18.561Z,2.5
2023-03-27T11:07:18.583Z,2.5
2023-03-27T11:08:18.621Z,2.5
2023-03-27T11:09:18.757Z,2.6
2023-03-27T11:10:18.425Z,2.6
2023-03-27T11:11:18.458Z,2.5
2023-03-27T11:12:18.468Z,2.5
2023-03-27T11:13:18.535Z,2.5
2023-03-27T11:14:18.461Z,2.5
2023-03-27T11:15:18.480Z,2.5
2023-03-27T11:16:18.623Z,2.5
2023-03-27T11:17:18.456Z,2.5
2023-03-27T11:18:18.489Z,2.5
2023-03-27T11:19:18.407Z,2.5
2023-03-27T11:20:18.420Z,2.5
2023-03-27T11:21:19.511Z,2.5
2023-03-27T11:22:18.451Z,2.5
2023-03-27T11:23:18.415Z,2.5
2023-03-27T11:24:18.542Z,2.5
2023-03-27T11:25:18.442Z,2.5
2023-03-27T11:26:41.467Z,2.5
2023-03-27T11:27:18.483Z,2.5
2023-03-27T11:28:18.471Z,2.5
2023-03-27T11:29:18.444Z,2.5
2023-03-27T11:31:18.424Z,2.5
2023-03-27T11:32:18.581Z,2.6
2023-03-27T11:33:18.502Z,2.6
2023-03-27T11:34:29.104Z,2.5
2023-03-27T11:35:18.496Z,2.5
2023-03-27T11:36:18.412Z,2.5
2023-03-27T11:37:18.513Z,2.5
2023-03-27T11:38:18.537Z,2.5
2023-03-27T11:39:18.498Z,2.5
2023-03-27T11:40:18.513Z,2.6
2023-03-27T11:41:18.661Z,2.5
2023-03-27T11:42:18.598Z,2.6
2023-03-27T11:43:18.586Z,2.6
2023-03-27T11:44:18.470Z,2.5
2023-03-27T11:45:18.393Z,2.5
2023-03-27T11:46:18.443Z,2.6
2023-03-27T11:47:18.800Z,2.6
2023-03-27T11:48:18.700Z,2.6
2023-03-27T11:49:18.626Z,2.6
2023-03-27T11:50:18.338Z,2.6
2023-03-27T11:51:18.362Z,2.6
2023-03-27T11:52:18.456Z,2.6
2023-03-27T11:53:18.460Z,2.6
2023-03-27T11:54:18.529Z,2.6
2023-03-27T11:55:18.319Z,2.6
2023-03-27T11:56:18.430Z,2.6
2023-03-27T11:57:18.566Z,2.6
2023-03-27T11:58:18.413Z,2.6
2023-03-27T11:59:18.373Z,2.6
2023-03-27T12:00:18.396Z,2.6
2023-03-27T12:01:19.151Z,2.6
2023-03-27T12:02:18.563Z,2.6
2023-03-27T12:03:21.445Z,2.5
2023-03-27T12:04:18.509Z,2.5
2023-03-27T12:05:18.623Z,2.5
2023-03-27T12:06:18.692Z,2.5
2023-03-27T12:07:26.301Z,2.5
2023-03-27T12:08:18.374Z,2.5
2023-03-27T12:09:18.527Z,2.5
2023-03-27T12:10:18.367Z,2.6
2023-03-27T12:11:18.341Z,2.6
2023-03-27T12:12:18.372Z,2.6
2023-03-27T12:13:18.345Z,2.6
2023-03-27T12:14:19.162Z,2.6
2023-03-27T12:15:18.391Z,2.6
2023-03-27T12:16:18.410Z,2.6
2023-03-27T12:17:18.330Z,2.6
2023-03-27T12:18:18.349Z,2.6
2023-03-27T12:19:28.329Z,2.6
2023-03-27T12:20:18.582Z,2.7
2023-03-27T12:21:18.318Z,2.7
2023-03-27T12:22:23.844Z,2.7
2023-03-27T12:23:18.328Z,2.7
2023-03-27T12:24:19.258Z,2.7
2023-03-27T12:25:18.352Z,2.7
2023-03-27T12:26:18.404Z,2.7
2023-03-27T12:27:18.351Z,2.7
2023-03-27T12:28:23.168Z,2.7
2023-03-27T12:29:23.347Z,2.7
2023-03-27T12:30:18.348Z,2.7
2023-03-27T12:31:18.707Z,2.7
2023-03-27T12:32:18.367Z,2.7
2023-03-27T12:33:18.612Z,2.7
2023-03-27T12:34:18.433Z,2.7
2023-03-27T12:35:21.487Z,2.7
2023-03-27T12:36:18.385Z,2.7
2023-03-27T12:37:19.168Z,2.7
2023-03-27T12:38:18.683Z,2.7
2023-03-27T12:39:18.340Z,2.6
2023-03-27T12:40:18.586Z,2.6
2023-03-27T12:41:18.523Z,2.6
2023-03-27T12:42:19.221Z,2.6
2023-03-27T12:43:18.870Z,2.6
2023-03-27T12:44:18.299Z,2.6
2023-03-27T12:45:18.503Z,2.6
2023-03-27T12:46:18.386Z,2.5
2023-03-27T12:47:18.309Z,2.5
2023-03-27T12:48:18.317Z,2.5
2023-03-27T12:49:18.315Z,2.5
2023-03-27T12:50:18.312Z,2.5
2023-03-27T12:51:20.476Z,2.5
2023-03-27T12:52:18.453Z,2.5
2023-03-27T12:53:18.371Z,2.5
2023-03-27T12:54:18.492Z,2.5
2023-03-27T12:55:18.613Z,2.5
2023-03-27T12:56:18.315Z,2.5
2023-03-27T12:57:19.990Z,2.5
2023-03-27T12:58:18.563Z,2.5
2023-03-27T12:59:18.329Z,2.5
2023-03-27T13:00:18.344Z,2.5
2023-03-27T13:01:18.331Z,2.5
2023-03-27T13:02:18.399Z,2.5
2023-03-27T13:03:19.189Z,2.5
2023-03-27T13:04:18.274Z,2.5
2023-03-27T13:05:26.958Z,2.5
2023-03-27T13:06:18.439Z,2.5
2023-03-27T13:07:18.597Z,2.5
2023-03-27T13:08:18.799Z,2.5
2023-03-27T13:09:18.602Z,2.5
2023-03-27T13:10:18.290Z,2.5
2023-03-27T13:11:18.373Z,2.5
2023-03-27T13:12:18.989Z,2.5
2023-03-27T13:13:18.396Z,2.5
2023-03-27T13:14:18.478Z,2.5
2023-03-27T13:15:18.734Z,2.5
2023-03-27T13:16:18.434Z,2.5
2023-03-27T13:17:18.302Z,2.5
2023-03-27T13:18:18.473Z,2.5
2023-03-27T13:19:18.403Z,2.5
2023-03-27T13:20:18.331Z,2.5
2023-03-27T13:21:18.491Z,2.4
2023-03-27T13:22:18.312Z,2.4
2023-03-27T13:23:19.031Z,2.4
2023-03-27T13:24:18.513Z,2.4
2023-03-27T13:25:18.373Z,2.4
2023-03-27T13:26:19.612Z,2.4
2023-03-27T13:27:18.312Z,2.4
2023-03-27T13:28:18.585Z,2.4
2023-03-27T13:29:18.246Z,2.3
2023-03-27T13:30:20.523Z,2.3
2023-03-27T13:31:18.294Z,2.3
2023-03-27T13:32:18.295Z,2.3
2023-03-27T13:38:18.795Z,2.3
2023-03-27T13:39:18.288Z,2.3
2023-03-27T13:40:18.300Z,2.3
2023-03-27T13:41:18.266Z,2.3
2023-03-27T13:42:18.173Z,2.3
2023-03-27T13:43:18.495Z,2.3
2023-03-27T13:44:18.313Z,2.3
2023-03-27T13:45:18.359Z,2.3
2023-03-27T13:46:18.396Z,2.3
2023-03-27T13:47:18.270Z,2.3
2023-03-27T13:48:18.321Z,2.3
2023-03-27T13:49:19.199Z,2.3
2023-03-27T13:50:18.291Z,2.3
2023-03-27T13:51:18.398Z,2.3
2023-03-27T13:52:18.241Z,2.3
2023-03-27T13:53:18.279Z,2.3
2023-03-27T13:54:18.390Z,2.3
2023-03-27T13:55:18.286Z,2.3
2023-03-27T13:56:18.242Z,2.3